Flight Track Log - Related Links

Times and Time Zones

All times are in EDT time to prevent confusion due to time zone crossing. See the LAN480 flight status page for this flight to view local times or setup timezone preferences in your user account.

Time Position Orientation Groundspeed Altitude Reporting Facility
EDT Latitude Longitude Course Direction KTS MPH feet Rate Location/Type
Tue 08:23:37 PM -34.5670 -58.4020 126° Southeast 145 167 600  Level FlightAware ADS-B
Tue 08:23:52 PM -34.5720 -58.3900 117° Southeast 154 177 1,200 1,650 Climbing FlightAware ADS-B
Tue 08:24:17 PM -34.5680 -58.3690 77° East 183 211 1,700 1,418 Climbing FlightAware ADS-B
Tue 08:24:47 PM -34.5550 -58.3370 64° Northeast 237 273 2,500 2,291 Climbing FlightAware ADS-B
Tue 08:25:12 PM -34.5420 -58.3040 64° Northeast 258 297 3,800 3,000 Climbing FlightAware ADS-B
Tue 08:25:27 PM -34.5310 -58.2880 50° Northeast 256 295 4,500 2,200 Climbing FlightAware ADS-B
Tue 08:25:42 PM -34.5150 -58.2780 27° Northeast 257 296 4,900 667 Climbing FlightAware ADS-B
Tue 08:26:12 PM -34.4820 -58.2880 346° North 270 311 5,000 300 Climbing FlightAware ADS-B
Tue 08:26:22 PM -34.4740 -58.2990 311° West 275 316 5,100 1,680 Climbing FlightAware ADS-B
Tue 08:26:37 PM -34.4670 -58.3220 290° West 287 330 5,700 3,600 Climbing FlightAware ADS-B
Tue 08:27:07 PM -34.4690 -58.3710 267° West 285 328 7,800 3,927 Climbing FlightAware ADS-B
Tue 08:27:32 PM -34.4720 -58.4120 265° West 291 335 9,300 3,000 Climbing FlightAware ADS-B
Tue 08:28:17 PM -34.4770 -58.4860 265° West 320 368 11,300 2,259 Climbing FlightAware ADS-B
Tue 08:28:57 PM -34.4830 -58.5620 265° West 357 411 12,500 2,541 Climbing FlightAware ADS-B
Tue 08:29:42 PM -34.4790 -58.6540 273° West 359 413 14,900 3,600 Climbing FlightAware ADS-B
Tue 08:30:22 PM -34.4730 -58.7320 275° West 336 387 17,600 3,075 Climbing FlightAware ADS-B
Tue 08:31:02 PM -34.4680 -58.8080 275° West 351 404 19,000 2,047 Climbing FlightAware ADS-B
Tue 08:31:47 PM -34.4610 -58.8950 276° West 363 418 20,500 2,047 Climbing FlightAware ADS-B
Tue 08:32:27 PM -34.4550 -58.9770 275° West 367 422 21,900 2,025 Climbing FlightAware ADS-B
Tue 08:33:07 PM -34.4490 -59.0610 275° West 374 430 23,200 1,976 Climbing FlightAware ADS-B
Tue 08:33:52 PM -34.4420 -59.1550 275° West 375 432 24,700 1,800 Climbing FlightAware ADS-B
Tue 08:34:27 PM -34.4360 -59.2290 276° West 383 441 25,600 1,680 Climbing FlightAware ADS-B
Tue 08:35:07 PM -34.4290 -59.3140 276° West 383 441 26,800 1,624 Climbing FlightAware ADS-B
Tue 08:35:52 PM -34.4220 -59.4120 275° West 390 449 27,900 1,412 Climbing FlightAware ADS-B
Tue 08:36:32 PM -34.4150 -59.5010 275° West 396 456 28,800 1,350 Climbing FlightAware ADS-B
Tue 08:37:12 PM -34.4080 -59.5890 275° West 397 457 29,700 1,835 Climbing FlightAware ADS-B
Tue 08:37:57 PM -34.4000 -59.6840 276° West 380 437 31,400 2,188 Climbing FlightAware ADS-B
Tue 08:38:37 PM -34.3930 -59.7680 276° West 367 422 32,800 1,765 Climbing FlightAware ADS-B
Tue 08:39:22 PM -34.3850 -59.8600 276° West 360 414 33,900 847 Climbing FlightAware ADS-B
Tue 08:40:02 PM -34.3790 -59.9400 275° West 355 409 34,000 71 Climbing FlightAware ADS-B
Tue 08:40:47 PM -34.3710 -60.0280 276° West 360 414 34,000  Level FlightAware ADS-B
Tue 08:41:27 PM -34.3650 -60.1070 275° West 360 414 34,000  Level FlightAware ADS-B
Tue 08:42:07 PM -34.3580 -60.1880 276° West 360 414 34,000  Level FlightAware ADS-B
Tue 08:42:52 PM -34.3500 -60.2800 276° West 360 414 34,000  Level FlightAware ADS-B
Tue 08:43:32 PM -34.3430 -60.3600 276° West 362 417 34,000  Level FlightAware ADS-B
Tue 08:44:12 PM -34.3360 -60.4400 276° West 361 415 34,000  Level FlightAware ADS-B
Tue 08:44:57 PM -34.3280 -60.5290 276° West 360 414 34,000  Level FlightAware ADS-B
Tue 08:45:37 PM -34.3210 -60.6080 276° West 360 414 34,000  Level FlightAware ADS-B
Tue 08:46:22 PM -34.3140 -60.6940 276° West 359 413 34,000  Level FlightAware ADS-B
Tue 08:47:02 PM -34.3070 -60.7740 276° West 359 413 34,000  Level FlightAware ADS-B
Tue 08:47:42 PM -34.2990 -60.8540 277° West 359 413 34,000  Level FlightAware ADS-B
Tue 08:48:27 PM -34.2910 -60.9440 276° West 360 414 34,000  Level FlightAware ADS-B
Tue 08:49:07 PM -34.2840 -61.0240 276° West 360 414 34,000  Level FlightAware ADS-B
Tue 08:49:52 PM -34.2750 -61.1150 277° West 361 415 34,000  Level FlightAware ADS-B
Tue 08:50:32 PM -34.2680 -61.1940 276° West 361 415 34,000  Level FlightAware ADS-B
Tue 08:51:12 PM -34.2600 -61.2750 277° West 361 415 34,000  Level FlightAware ADS-B
Tue 08:51:52 PM -34.2530 -61.3500 276° West 360 414 34,000  Level FlightAware ADS-B
Tue 08:52:37 PM -34.2440 -61.4450 277° West 359 413 34,000  Level FlightAware ADS-B
Tue 08:53:17 PM -34.2370 -61.5160 277° West 359 413 34,000  Level FlightAware ADS-B
Tue 08:54:02 PM -34.2320 -61.5980 274° West 359 413 34,000  Level FlightAware ADS-B
Tue 08:54:42 PM -34.2200 -61.6960 278° West 363 418 34,000  Level FlightAware ADS-B
Tue 08:55:27 PM -34.2130 -61.7790 276° West 364 419 34,000  Level FlightAware ADS-B
Tue 08:56:07 PM -34.2080 -61.8480 275° West 364 419 34,000  Level FlightAware ADS-B
Tue 08:56:52 PM -34.1940 -61.9590 279° West 367 422 34,000  Level FlightAware ADS-B
Tue 08:57:42 PM -34.1840 -62.0570 277° West 366 421 34,000  Level FlightAware ADS-B
Tue 08:58:27 PM -34.1780 -62.1400 275° West 366 421 34,000  Level FlightAware ADS-B
Tue 08:59:02 PM -34.1680 -62.2180 279° West 34,000  Level FlightAware ADS-B
Tue 09:01:00 PM -34.1580 -62.3964 274° West  Level Estimated
Tue 09:02:00 PM -34.1529 -62.4871 274° West  Level Estimated
Tue 09:03:00 PM -34.1476 -62.5778 274° West  Level Estimated
Tue 09:04:00 PM -34.1423 -62.6685 274° West  Level Estimated
Tue 09:05:00 PM -34.1370 -62.7592 274° West  Level Estimated
Tue 09:06:00 PM -34.1315 -62.8499 274° West  Level Estimated
Tue 09:07:00 PM -34.1260 -62.9405 274° West  Level Estimated
Tue 09:08:00 PM -34.1204 -63.0312 274° West  Level Estimated
Tue 09:08:57 PM -34.0370 -63.4350 274° West 366 421 34,000  Level FlightAware ADS-B
Tue 09:09:00 PM -34.1148 -63.1218 274° West  Level Estimated
Tue 09:09:42 PM -34.0280 -63.5200 277° West 366 421 34,000  Level FlightAware ADS-B
Tue 09:10:22 PM -34.0210 -63.5890 277° West 366 421 34,000  Level FlightAware ADS-B
Tue 09:11:12 PM -34.0080 -63.6980 278° West 365 420 34,000  Level FlightAware ADS-B
Tue 09:12:02 PM -33.9990 -63.7840 277° West 365 420 34,000  Level FlightAware ADS-B
Tue 09:12:42 PM -33.9920 -63.8520 277° West 365 420 34,000  Level FlightAware ADS-B
Tue 09:13:22 PM -33.9850 -63.9210 277° West 365 420 34,000  Level FlightAware ADS-B
Tue 09:14:02 PM -33.9780 -63.9900 277° West 365 420 34,000  Level FlightAware ADS-B
Tue 09:14:42 PM -33.9710 -64.0580 277° West 365 420 34,000  Level FlightAware ADS-B
Tue 09:15:32 PM -33.9620 -64.1440 277° West 365 420 34,000  Level FlightAware ADS-B
Tue 09:16:12 PM -33.9550 -64.2130 277° West 365 420 34,000  Level FlightAware ADS-B
Tue 09:16:52 PM -33.9480 -64.2820 277° West 365 420 34,000  Level FlightAware ADS-B
Tue 09:17:37 PM -33.9150 -64.4790 281° West 363 418 34,000  Level FlightAware ADS-B
Tue 09:18:12 PM -33.9040 -64.5460 281° West 361 415 34,000  Level FlightAware ADS-B
Tue 09:19:12 PM -33.8810 -64.6610 284° West 359 413 34,000  Level FlightAware ADS-B
Tue 09:19:57 PM -33.8670 -64.7520 280° West 357 411 34,000  Level FlightAware ADS-B
Tue 09:20:37 PM -33.8560 -64.8240 280° West 357 411 34,000  Level FlightAware ADS-B
Tue 09:21:17 PM -33.8460 -64.8910 280° West 357 411 34,000  Level FlightAware ADS-B
Tue 09:22:17 PM -33.8230 -65.0220 282° West 359 413 34,000  Level FlightAware ADS-B
Tue 09:22:57 PM -33.8120 -65.0890 281° West 359 413 34,000  Level FlightAware ADS-B
Tue 09:23:37 PM -33.8010 -65.1550 281° West 359 413 34,000  Level FlightAware ADS-B
Tue 09:24:27 PM -33.7880 -65.2390 281° West 359 413 34,000  Level FlightAware ADS-B
Tue 09:25:02 PM -33.7690 -65.3410 283° West 357 411 34,000  Level FlightAware ADS-B
Tue 09:25:47 PM -33.7530 -65.4340 282° West 357 411 34,000  Level FlightAware ADS-B
Tue 09:26:27 PM -33.7420 -65.5040 281° West 357 411 34,000  Level FlightAware ADS-B
Tue 09:27:07 PM -33.7270 -65.5880 282° West 356 410 34,000  Level FlightAware ADS-B
Tue 09:27:52 PM -33.7140 -65.6640 282° West 356 410 34,000  Level FlightAware ADS-B
Tue 09:28:32 PM -33.7040 -65.7300 280° West 356 410 34,000  Level FlightAware ADS-B
Tue 09:29:12 PM -33.6930 -65.7960 281° West 356 410 34,000  Level FlightAware ADS-B
Tue 09:30:02 PM -33.6800 -65.8780 281° West 356 410 34,000  Level FlightAware ADS-B
Tue 09:30:42 PM -33.6690 -65.9440 281° West 356 410 34,000  Level FlightAware ADS-B
Tue 09:31:22 PM -33.6580 -66.0100 281° West 356 410 34,000  Level FlightAware ADS-B
Tue 09:32:02 PM -33.6480 -66.0760 280° West 356 410 34,000  Level FlightAware ADS-B
Tue 09:32:42 PM -33.6370 -66.1420 281° West 356 410 34,000  Level FlightAware ADS-B
Tue 09:33:32 PM -33.6240 -66.2250 281° West 356 410 34,000  Level FlightAware ADS-B
Tue 09:34:12 PM -33.6130 -66.2910 281° West 356 410 34,000  Level FlightAware ADS-B
Tue 09:34:52 PM -33.6020 -66.3570 281° West 356 410 34,000  Level FlightAware ADS-B
Tue 09:35:32 PM -33.5910 -66.4230 281° West 356 410 34,000  Level FlightAware ADS-B
Tue 09:36:12 PM -33.5810 -66.4890 280° West 356 410 34,000  Level FlightAware ADS-B
Tue 09:37:02 PM -33.5670 -66.5710 282° West 356 410 34,000  Level FlightAware ADS-B
Tue 09:39:00 PM -33.5626 -66.7485 272° West  Level Estimated
Tue 09:40:00 PM -33.5602 -66.8388 272° West  Level Estimated
Tue 09:41:00 PM -33.5578 -66.9290 272° West  Level Estimated
Tue 09:42:00 PM -33.5553 -67.0192 272° West  Level Estimated
Tue 09:43:00 PM -33.5527 -67.1095 272° West  Level Estimated
Tue 09:44:00 PM -33.5501 -67.1997 272° West  Level Estimated
Tue 09:45:00 PM -33.5475 -67.2899 272° West  Level Estimated
Tue 09:46:00 PM -33.5447 -67.3802 272° West  Level Estimated
Tue 09:47:00 PM -33.5419 -67.4704 272° West  Level Estimated
Tue 09:48:00 PM -33.5390 -67.5606 272° West  Level Estimated
Tue 09:49:00 PM -33.5361 -67.6508 272° West  Level Estimated
Tue 09:50:00 PM -33.5331 -67.7410 272° West  Level Estimated
Tue 09:51:00 PM -33.5300 -67.8312 272° West  Level Estimated
Tue 09:52:00 PM -33.5269 -67.9214 272° West  Level Estimated
Tue 09:53:00 PM -33.5237 -68.0115 272° West  Level Estimated
Tue 09:54:00 PM -33.5204 -68.1017 272° West  Level Estimated
Tue 09:55:00 PM -33.5170 -68.1919 273° West  Level Estimated
Tue 09:56:00 PM -33.5136 -68.2820 273° West  Level Estimated
Tue 09:57:00 PM -33.5102 -68.3722 273° West  Level Estimated
Tue 09:58:00 PM -33.5066 -68.4623 273° West  Level Estimated
Tue 09:59:00 PM -33.5030 -68.5525 273° West  Level Estimated
Tue 10:00:00 PM -33.4994 -68.6426 273° West  Level Estimated
Tue 10:01:00 PM -33.4957 -68.7327 273° West  Level Estimated
Tue 10:02:00 PM -33.4919 -68.8228 273° West  Level Estimated
Tue 10:03:00 PM -33.4880 -68.9129 273° West  Level Estimated
Tue 10:04:00 PM -33.4841 -69.0030 273° West  Level Estimated
Tue 10:04:42 PM -32.9310 -69.7750 273° West 318 366 34,000  Level FlightAware ADS-B
Tue 10:05:37 PM -32.9180 -69.8330 285° West 323 372 32,700 -2,348 Descending FlightAware ADS-B
Tue 10:06:37 PM -32.8880 -69.9760 284° West 338 389 29,500 -2,842 Descending FlightAware ADS-B
Tue 10:07:12 PM -32.8800 -70.0350 279° West 343 395 28,200 -2,400 Descending FlightAware ADS-B
Tue 10:08:02 PM -32.8710 -70.1340 276° West 343 395 26,100 -2,667 Descending FlightAware ADS-B
Tue 10:08:42 PM -32.8640 -70.2160 276° West 342 394 24,200 -2,471 Descending FlightAware ADS-B
Tue 10:09:27 PM -32.8570 -70.2830 277° West 342 394 22,600 -2,475 Descending FlightAware ADS-B
Tue 10:10:02 PM -32.8510 -70.3560 276° West 344 396 20,900 -2,625 Descending FlightAware ADS-B
Tue 10:10:47 PM -32.8430 -70.4400 276° West 343 395 19,100 -2,188 Descending FlightAware ADS-B
Tue 10:11:27 PM -32.8370 -70.4970 277° West 342 394 17,800 -918 Descending FlightAware ADS-B
Tue 10:12:12 PM -32.8300 -70.5750 276° West 342 394 17,800  Level FlightAware ADS-B
Tue 10:12:52 PM -32.8250 -70.6380 275° West 342 394 17,800  Level FlightAware ADS-B
Tue 10:13:32 PM -32.8190 -70.7020 276° West 342 394 17,800  Level FlightAware ADS-B
Tue 10:14:22 PM -32.8120 -70.7820 276° West 342 394 17,800  Level FlightAware ADS-B
Tue 10:15:02 PM -32.8070 -70.8450 275° West 342 394 17,800 -3,686 Level FlightAware ADS-B
Tue 10:17:00 PM -32.9544 -70.8302 175° South  Level Estimated
Tue 10:17:52 PM -33.1810 -70.7970 175° South 236 272 4,900  Level FlightAware ADS-B
Tue 10:18:32 PM -33.2240 -70.7950 178° South 203 234 4,500 -923 Descending FlightAware ADS-B
Tue 10:18:57 PM -33.2480 -70.7940 178° South 205 236 3,900 -771 Descending FlightAware ADS-B
Tue 10:19:42 PM -33.2830 -70.7920 177° South 204 235 3,600 -847 Descending FlightAware ADS-B
Tue 10:20:22 PM -33.3120 -70.7900 177° South 161 185 2,700 -831 Descending FlightAware ADS-B
Tue 10:20:47 PM -33.3310 -70.7890 177° South 161 185 2,700 -494 Level FlightAware ADS-B
Tue 10:21:47 PM -33.3670 -70.7870 177° South 133 153 2,000 -700 Descending FlightAware ADS-B
Tue 10:27:00 PM -33.3930 -70.7858 270° West  Level Estimated
Tue 10:28:00 PM -33.3930 -70.7858 270° West  Level Estimated
Tue 10:29:00 PM -33.3930 -70.7858 270° West  Level Estimated
Tue 10:30:00 PM -33.3930 -70.7858 270° West  Level Estimated
Tue 10:31:00 PM -33.3930 -70.7858 270° West  Level Estimated
Tue 10:32:00 PM -33.3930 -70.7858 270° West  Level Estimated
Tue 10:33:00 PM -33.3930 -70.7858 270° West  Level Estimated
Tue 10:34:00 PM -33.3930 -70.7858 270° West  Level Estimated
Tue 10:35:00 PM -33.3930 -70.7858 270° West  Level Estimated
Tue 10:36:00 PM -33.3930 -70.7858 270° West  Level Estimated
Tue 10:37:00 PM -33.3930 -70.7858 270° West  Level Estimated
Tue 10:38:00 PM -33.3930 -70.7858 270° West  Level Estimated
Tue 10:39:00 PM -33.3930 -70.7858 270° West  Level Estimated
Tue 10:40:00 PM -33.3930 -70.7858 270° West  Level Estimated
Tue 10:41:00 PM -33.3930 -70.7858 270° West  Level Estimated

Login

Don't have an account? Register now (free) for customized features, flight alerts, and more!